Time;durP1;ratioP1;P1;durP2;ratioP2;P2;SDS_P1;SDS_P2;PMS_P1;PMS_P2;Temp;Humidity;BMP_temperature;BMP_pressure;BME280_temperature;BME280_humidity;BME280_pressure;Samples;Min_cycle;Max_cycle;Signal;HPM_P1;HPM_P2
2021/08/29 00:00:24;;;;;;;5.88;4.82;;;;;;;;;;4963687;28;20045;-69
2021/08/29 00:02:50;;;;;;;6.25;4.90;;;;;;;;;;4977700;28;20042;-69
2021/08/29 00:05:16;;;;;;;5.95;5.07;;;;;;;;;;4971807;28;20038;-70
2021/08/29 00:07:42;;;;;;;7.38;4.90;;;;;;;;;;4955536;28;20038;-69
2021/08/29 00:10:08;;;;;;;7.60;4.85;;;;;;;;;;4973123;28;20062;-69
2021/08/29 00:12:35;;;;;;;6.57;4.75;;;;;;;;;;4973259;28;20044;-70
2021/08/29 00:15:01;;;;;;;6.47;5.00;;;;;;;;;;4972639;28;20500;-70
2021/08/29 00:17:27;;;;;;;6.97;5.22;;;;;;;;;;4958529;28;20027;-70
2021/08/29 00:20:00;;;;;;;5.00;4.50;;;;;;;;;;4974085;28;20038;-69
2021/08/29 00:22:28;;;;;;;10.27;5.60;;;;;;;;;;4957581;28;20057;-69
2021/08/29 00:24:54;;;;;;;5.60;5.00;;;;;;;;;;4964882;28;20074;-67
2021/08/29 00:27:20;;;;;;;8.00;4.35;;;;;;;;;;4973379;28;20023;-68
2021/08/29 00:29:48;;;;;;;5.00;4.50;;;;;;;;;;4973012;28;20022;-69
2021/08/29 00:32:14;;;;;;;5.68;5.05;;;;;;;;;;4972352;28;20172;-69
2021/08/29 00:34:40;;;;;;;5.70;5.10;;;;;;;;;;4971567;28;20031;-70
2021/08/29 00:37:06;;;;;;;5.07;4.40;;;;;;;;;;4973236;28;20110;-71
2021/08/29 00:39:33;;;;;;;6.30;5.10;;;;;;;;;;4973112;28;20022;-69
2021/08/29 00:41:59;;;;;;;5.07;4.57;;;;;;;;;;4973128;28;20027;-70
2021/08/29 00:44:26;;;;;;;7.70;4.70;;;;;;;;;;4969932;28;20063;-70
2021/08/29 00:46:52;;;;;;;4.60;4.07;;;;;;;;;;4972647;28;20022;-70
2021/08/29 00:49:19;;;;;;;6.40;4.78;;;;;;;;;;4972388;28;20030;-70
2021/08/29 00:51:46;;;;;;;5.18;4.65;;;;;;;;;;4967254;28;20023;-70
2021/08/29 00:54:14;;;;;;;9.05;4.90;;;;;;;;;;4975060;28;20428;-70
2021/08/29 00:56:40;;;;;;;5.53;4.78;;;;;;;;;;4973102;28;20030;-70
2021/08/29 00:59:06;;;;;;;5.15;4.38;;;;;;;;;;4973101;28;20023;-71
2021/08/29 01:01:37;;;;;;;6.55;4.85;;;;;;;;;;4972634;28;20031;-70
2021/08/29 01:04:06;;;;;;;5.97;5.15;;;;;;;;;;4971796;28;20119;-69
2021/08/29 01:06:38;;;;;;;5.93;5.00;;;;;;;;;;4966525;28;20082;-69
2021/08/29 01:09:06;;;;;;;7.75;4.55;;;;;;;;;;4972464;28;20085;-69
2021/08/29 01:11:33;;;;;;;10.55;5.50;;;;;;;;;;4963957;28;20019;-70
2021/08/29 01:14:05;;;;;;;8.63;5.30;;;;;;;;;;4972659;28;20041;-69
2021/08/29 01:16:34;;;;;;;7.93;5.57;;;;;;;;;;4957317;28;20031;-70
2021/08/29 01:19:01;;;;;;;8.48;5.03;;;;;;;;;;4972318;28;20034;-70
2021/08/29 01:21:28;;;;;;;7.32;5.47;;;;;;;;;;4967669;28;20077;-69
2021/08/29 01:24:05;;;;;;;6.25;5.65;;;;;;;;;;4973577;28;20030;-67
2021/08/29 01:26:46;;;;;;;9.13;6.35;;;;;;;;;;4975683;28;20544;-69
2021/08/29 01:29:13;;;;;;;7.47;6.18;;;;;;;;;;4976082;28;20070;-70
2021/08/29 01:31:41;;;;;;;8.52;6.30;;;;;;;;;;4976805;28;20031;-68
2021/08/29 01:34:07;;;;;;;7.78;6.28;;;;;;;;;;4975460;28;20050;-68
2021/08/29 01:36:35;;;;;;;7.55;6.68;;;;;;;;;;4970780;28;20055;-67
2021/08/29 01:39:02;;;;;;;9.32;6.90;;;;;;;;;;4977671;28;20468;-69
2021/08/29 01:41:28;;;;;;;7.85;6.78;;;;;;;;;;4976216;28;20027;-69
2021/08/29 01:43:55;;;;;;;8.00;6.97;;;;;;;;;;4975804;28;20031;-69
2021/08/29 01:46:29;;;;;;;7.38;6.40;;;;;;;;;;4975983;28;20174;-70
2021/08/29 01:48:56;;;;;;;7.40;6.70;;;;;;;;;;4978839;28;20592;-69
2021/08/29 01:51:22;;;;;;;8.27;6.38;;;;;;;;;;4975290;28;20074;-69
2021/08/29 01:53:49;;;;;;;8.90;6.90;;;;;;;;;;4969102;28;20039;-70
2021/08/29 01:56:15;;;;;;;7.40;6.70;;;;;;;;;;4975782;28;20034;-68
2021/08/29 01:58:41;;;;;;;8.85;6.20;;;;;;;;;;4975629;28;20086;-69
2021/08/29 02:01:11;;;;;;;8.55;7.22;;;;;;;;;;4975355;28;20484;-69
2021/08/29 02:03:39;;;;;;;9.45;7.15;;;;;;;;;;4975940;28;20019;-69
2021/08/29 02:06:11;;;;;;;9.60;7.63;;;;;;;;;;4964867;28;20035;-68
2021/08/29 02:08:39;;;;;;;10.25;6.90;;;;;;;;;;4968660;28;20034;-69
2021/08/29 02:11:06;;;;;;;7.85;6.78;;;;;;;;;;4975662;28;20033;-68
2021/08/29 02:13:35;;;;;;;8.10;6.75;;;;;;;;;;4975224;28;20031;-70
2021/08/29 02:16:10;;;;;;;8.38;7.25;;;;;;;;;;4974783;28;20027;-69
2021/08/29 02:18:36;;;;;;;9.68;7.10;;;;;;;;;;4974970;28;20037;-69
2021/08/29 02:21:03;;;;;;;9.60;7.30;;;;;;;;;;4975242;28;20105;-69
2021/08/29 02:23:29;;;;;;;7.93;6.90;;;;;;;;;;4974280;28;20031;-69
2021/08/29 02:25:57;;;;;;;8.60;6.95;;;;;;;;;;4975479;28;20504;-70
2021/08/29 02:28:30;;;;;;;8.30;7.00;;;;;;;;;;4982554;28;20383;-70
2021/08/29 02:31:09;;;;;;;8.30;7.50;;;;;;;;;;4957287;28;20042;-70
2021/08/29 02:33:35;;;;;;;10.07;7.60;;;;;;;;;;4968382;28;20519;-68
2021/08/29 02:36:02;;;;;;;8.98;7.50;;;;;;;;;;4972354;28;20117;-69
2021/08/29 02:38:28;;;;;;;8.73;7.93;;;;;;;;;;4963232;28;20038;-70
2021/08/29 02:40:55;;;;;;;10.95;7.82;;;;;;;;;;4972716;28;20034;-68
2021/08/29 02:43:23;;;;;;;9.05;8.05;;;;;;;;;;4968934;28;20102;-68
2021/08/29 02:45:49;;;;;;;8.43;7.60;;;;;;;;;;4966653;28;20079;-70
2021/08/29 02:48:16;;;;;;;9.25;7.93;;;;;;;;;;4982231;28;20022;-69
2021/08/29 02:50:43;;;;;;;13.30;9.13;;;;;;;;;;4978364;28;20039;-70
2021/08/29 02:53:09;;;;;;;9.88;8.88;;;;;;;;;;4988104;28;20499;-69
2021/08/29 02:55:36;;;;;;;9.60;8.65;;;;;;;;;;4974777;28;20488;-69
2021/08/29 02:58:05;;;;;;;11.63;8.98;;;;;;;;;;4974050;28;20118;-70
2021/08/29 03:00:31;;;;;;;10.50;8.32;;;;;;;;;;4973838;28;20063;-68
2021/08/29 03:02:57;;;;;;;10.73;8.60;;;;;;;;;;4973141;28;20026;-70
2021/08/29 03:05:24;;;;;;;11.45;9.30;;;;;;;;;;4974353;28;20105;-70
2021/08/29 03:07:50;;;;;;;10.05;8.55;;;;;;;;;;4974456;28;20049;-68
2021/08/29 03:10:16;;;;;;;10.80;9.10;;;;;;;;;;4974369;28;20058;-70
2021/08/29 03:12:43;;;;;;;10.00;9.00;;;;;;;;;;4973743;28;20023;-70
2021/08/29 03:15:11;;;;;;;11.05;9.35;;;;;;;;;;4973236;28;20121;-69
2021/08/29 03:17:37;;;;;;;13.18;10.00;;;;;;;;;;4961678;28;20500;-70
2021/08/29 03:20:07;;;;;;;11.68;9.13;;;;;;;;;;4973679;28;20031;-69
2021/08/29 03:22:33;;;;;;;11.20;8.85;;;;;;;;;;4975315;28;20106;-69
2021/08/29 03:24:59;;;;;;;9.45;8.27;;;;;;;;;;4974499;28;20444;-70
2021/08/29 03:27:25;;;;;;;11.07;8.40;;;;;;;;;;4973891;28;20110;-69
2021/08/29 03:29:51;;;;;;;10.30;9.20;;;;;;;;;;4984965;28;20022;-69
2021/08/29 03:32:19;;;;;;;10.57;8.88;;;;;;;;;;4974202;28;20061;-69
2021/08/29 03:34:45;;;;;;;11.45;9.27;;;;;;;;;;4973238;28;20531;-69
2021/08/29 03:37:13;;;;;;;12.85;10.50;;;;;;;;;;4982528;28;20027;-69
2021/08/29 03:39:40;;;;;;;11.38;10.25;;;;;;;;;;4971360;28;20030;-69
2021/08/29 03:42:08;;;;;;;14.32;9.77;;;;;;;;;;4966232;28;20437;-68
2021/08/29 03:44:35;;;;;;;12.23;10.27;;;;;;;;;;4973217;28;20034;-67
2021/08/29 03:47:11;;;;;;;11.18;10.00;;;;;;;;;;4977170;28;20023;-71
2021/08/29 03:49:39;;;;;;;13.68;10.65;;;;;;;;;;4971251;28;20029;-69
2021/08/29 03:52:06;;;;;;;13.90;12.00;;;;;;;;;;4964204;28;20026;-70
2021/08/29 03:54:32;;;;;;;12.75;11.45;;;;;;;;;;4973297;28;20098;-67
2021/08/29 03:56:58;;;;;;;14.57;10.82;;;;;;;;;;4973845;28;20082;-70
2021/08/29 03:59:24;;;;;;;11.73;10.52;;;;;;;;;;4972292;28;20073;-70
2021/08/29 04:01:50;;;;;;;14.90;10.45;;;;;;;;;;4971628;28;20034;-70
2021/08/29 04:04:16;;;;;;;13.02;11.23;;;;;;;;;;4973296;28;20038;-70
2021/08/29 04:06:46;;;;;;;12.43;10.80;;;;;;;;;;4977850;28;20109;-70
2021/08/29 04:09:13;;;;;;;13.38;11.48;;;;;;;;;;4966460;28;20117;-70
2021/08/29 04:11:42;;;;;;;12.90;11.48;;;;;;;;;;4971431;28;20502;-69
2021/08/29 04:14:12;;;;;;;13.57;10.48;;;;;;;;;;4973556;28;20045;-70
2021/08/29 04:16:42;;;;;;;12.27;11.07;;;;;;;;;;4961670;28;20034;-70
2021/08/29 04:19:08;;;;;;;12.52;10.75;;;;;;;;;;4977903;28;20031;-69
2021/08/29 04:21:34;;;;;;;13.10;11.65;;;;;;;;;;4964522;28;20092;-70
2021/08/29 04:24:02;;;;;;;14.45;11.43;;;;;;;;;;4971088;28;20018;-70
2021/08/29 04:26:28;;;;;;;12.27;10.55;;;;;;;;;;4975577;28;20123;-70
2021/08/29 04:28:55;;;;;;;11.50;10.13;;;;;;;;;;4973190;28;20035;-70
2021/08/29 04:31:28;;;;;;;11.52;9.07;;;;;;;;;;4972281;28;20031;-70
2021/08/29 04:33:54;;;;;;;10.30;9.23;;;;;;;;;;4970504;28;20040;-69
2021/08/29 04:36:20;;;;;;;12.35;10.30;;;;;;;;;;4973483;28;20493;-69
2021/08/29 04:38:46;;;;;;;10.98;9.93;;;;;;;;;;4973090;28;20027;-70
2021/08/29 04:41:12;;;;;;;10.32;9.32;;;;;;;;;;4973262;28;20484;-67
2021/08/29 04:43:38;;;;;;;11.32;9.93;;;;;;;;;;4971648;28;20023;-70
2021/08/29 04:46:06;;;;;;;10.50;9.45;;;;;;;;;;4973108;28;20385;-70
2021/08/29 04:48:32;;;;;;;11.60;10.40;;;;;;;;;;4973472;28;20027;-69
2021/08/29 04:50:59;;;;;;;11.93;9.68;;;;;;;;;;4972799;28;20518;-70
2021/08/29 04:53:25;;;;;;;13.77;10.50;;;;;;;;;;4967409;28;20417;-70
2021/08/29 04:55:51;;;;;;;10.93;9.82;;;;;;;;;;4959315;28;20122;-69
2021/08/29 04:58:19;;;;;;;13.18;10.73;;;;;;;;;;4978534;28;20055;-69
2021/08/29 05:00:46;;;;;;;11.25;10.10;;;;;;;;;;4977942;28;20022;-70
2021/08/29 05:03:12;;;;;;;12.50;10.23;;;;;;;;;;4977038;28;20031;-70
2021/08/29 05:05:38;;;;;;;11.05;9.95;;;;;;;;;;4975790;28;20472;-68
2021/08/29 05:08:04;;;;;;;11.73;9.43;;;;;;;;;;4976094;28;20038;-68
2021/08/29 05:10:30;;;;;;;10.77;9.40;;;;;;;;;;4976829;28;20022;-68
2021/08/29 05:12:56;;;;;;;10.45;9.30;;;;;;;;;;4976413;28;20026;-68
2021/08/29 05:15:22;;;;;;;10.25;9.25;;;;;;;;;;4973833;28;20047;-70
2021/08/29 05:17:48;;;;;;;10.70;9.70;;;;;;;;;;4974097;28;20030;-69
2021/08/29 05:20:14;;;;;;;11.20;9.95;;;;;;;;;;4973819;28;20572;-67
2021/08/29 05:22:41;;;;;;;10.32;9.23;;;;;;;;;;4977025;28;20051;-70
2021/08/29 05:25:07;;;;;;;9.88;8.98;;;;;;;;;;4977887;28;20037;-69
2021/08/29 05:27:33;;;;;;;10.20;9.20;;;;;;;;;;4973444;28;20031;-73
2021/08/29 05:29:59;;;;;;;9.95;8.95;;;;;;;;;;4960682;28;21823;-65
2021/08/29 05:32:25;;;;;;;9.70;8.73;;;;;;;;;;4974817;28;20043;-68
2021/08/29 05:34:51;;;;;;;10.02;8.93;;;;;;;;;;4974725;28;20121;-72
2021/08/29 05:37:17;;;;;;;10.80;9.50;;;;;;;;;;4966081;28;20028;-64
2021/08/29 05:39:43;;;;;;;10.25;9.25;;;;;;;;;;4966101;28;20392;-66
2021/08/29 05:42:09;;;;;;;12.07;9.73;;;;;;;;;;4975616;28;20477;-66
2021/08/29 05:44:35;;;;;;;9.98;8.98;;;;;;;;;;4974712;28;20532;-67
2021/08/29 05:47:01;;;;;;;10.68;9.52;;;;;;;;;;4975173;28;20055;-65
2021/08/29 05:49:27;;;;;;;10.40;9.40;;;;;;;;;;4973787;28;20037;-74
2021/08/29 05:51:54;;;;;;;55.90;36.20;;;;;;;;;;4976249;28;20040;-73
2021/08/29 05:54:22;;;;;;;15.50;11.52;;;;;;;;;;4975927;28;20480;-71
2021/08/29 05:57:10;;;;;;;11.93;9.55;;;;;;;;;;4989128;28;20027;-70
2021/08/29 05:59:36;;;;;;;9.98;8.98;;;;;;;;;;4979577;28;20027;-72
2021/08/29 06:02:05;;;;;;;9.90;8.68;;;;;;;;;;4992210;28;20198;-76
2021/08/29 06:04:46;;;;;;;10.13;8.55;;;;;;;;;;4991914;28;20033;-78
2021/08/29 06:07:29;;;;;;;9.90;8.90;;;;;;;;;;4977397;28;20045;-76
2021/08/29 06:09:55;;;;;;;9.95;9.05;;;;;;;;;;4979192;28;20038;-71
2021/08/29 06:12:31;;;;;;;11.43;9.70;;;;;;;;;;4993206;28;20034;-72
2021/08/29 06:14:57;;;;;;;9.35;8.00;;;;;;;;;;4955289;28;20134;-72
2021/08/29 06:17:23;;;;;;;9.52;8.40;;;;;;;;;;4968432;28;20026;-71
2021/08/29 06:19:49;;;;;;;9.02;8.02;;;;;;;;;;4974717;28;20038;-68
2021/08/29 06:22:15;;;;;;;12.95;9.45;;;;;;;;;;4961759;28;20094;-69
2021/08/29 06:24:41;;;;;;;9.75;8.52;;;;;;;;;;4978377;28;20041;-75
2021/08/29 06:27:07;;;;;;;10.23;9.15;;;;;;;;;;4974743;28;20392;-75
2021/08/29 06:29:34;;;;;;;9.63;8.70;;;;;;;;;;4975349;28;20601;-64
2021/08/29 06:32:00;;;;;;;10.32;9.32;;;;;;;;;;4974442;28;20074;-75
2021/08/29 06:34:26;;;;;;;11.65;8.82;;;;;;;;;;4965383;28;20045;-70
2021/08/29 06:36:52;;;;;;;11.23;8.63;;;;;;;;;;4974233;28;20111;-65
2021/08/29 06:39:18;;;;;;;10.65;9.07;;;;;;;;;;4974454;28;20425;-73
2021/08/29 06:41:44;;;;;;;10.73;9.63;;;;;;;;;;4972761;28;20034;-70
2021/08/29 06:44:10;;;;;;;12.60;9.88;;;;;;;;;;4974505;28;20026;-68
2021/08/29 06:46:36;;;;;;;11.05;9.23;;;;;;;;;;4972658;28;20031;-67
2021/08/29 06:49:02;;;;;;;10.70;9.70;;;;;;;;;;4973795;28;20429;-65
2021/08/29 06:51:28;;;;;;;11.80;9.15;;;;;;;;;;4974853;28;20026;-70
2021/08/29 06:53:54;;;;;;;9.77;8.77;;;;;;;;;;4973512;28;20473;-70
2021/08/29 06:56:22;;;;;;;9.82;8.82;;;;;;;;;;4971874;28;20511;-71
2021/08/29 07:02:07;;;;;;;9.43;8.43;;;;;;;;;;4905494;29;20032;-73
2021/08/29 07:04:33;;;;;;;9.80;8.20;;;;;;;;;;4879517;29;20053;-72
2021/08/29 07:07:02;;;;;;;9.80;8.50;;;;;;;;;;4890356;29;20051;-71
2021/08/29 07:09:31;;;;;;;8.90;8.10;;;;;;;;;;4897283;29;20075;-71
2021/08/29 07:11:57;;;;;;;8.98;7.82;;;;;;;;;;4897584;29;20055;-71
2021/08/29 07:14:26;;;;;;;9.52;7.82;;;;;;;;;;4894716;29;20491;-71
2021/08/29 07:16:52;;;;;;;8.85;7.95;;;;;;;;;;4893984;29;20037;-67
2021/08/29 07:19:18;;;;;;;9.65;7.50;;;;;;;;;;4901989;29;20036;-67
2021/08/29 07:21:44;;;;;;;8.90;8.00;;;;;;;;;;4899361;29;20056;-67
2021/08/29 07:24:10;;;;;;;11.75;7.68;;;;;;;;;;4899492;29;20078;-68
2021/08/29 07:26:36;;;;;;;13.43;7.97;;;;;;;;;;4897913;29;20040;-69
2021/08/29 07:29:02;;;;;;;11.40;8.40;;;;;;;;;;4910958;29;20036;-66
2021/08/29 07:31:29;;;;;;;11.38;8.85;;;;;;;;;;4905309;29;20153;-69
2021/08/29 07:33:55;;;;;;;9.52;7.85;;;;;;;;;;4914785;29;20087;-74
2021/08/29 07:36:21;;;;;;;11.20;8.32;;;;;;;;;;4907149;29;20092;-70
2021/08/29 07:38:47;;;;;;;11.65;8.55;;;;;;;;;;4954941;28;20038;-74
2021/08/29 07:41:13;;;;;;;12.23;8.50;;;;;;;;;;4973311;28;20038;-72
2021/08/29 07:43:39;;;;;;;10.40;7.85;;;;;;;;;;4958651;28;20488;-75
2021/08/29 07:46:05;;;;;;;11.90;8.00;;;;;;;;;;4971813;28;20027;-66
2021/08/29 07:48:31;;;;;;;11.00;7.80;;;;;;;;;;4972513;28;20037;-66
2021/08/29 07:50:57;;;;;;;11.63;7.50;;;;;;;;;;4971479;28;20158;-67
2021/08/29 07:53:29;;;;;;;10.75;7.22;;;;;;;;;;4972357;28;20034;-72
2021/08/29 07:55:55;;;;;;;12.13;7.70;;;;;;;;;;4949344;28;20552;-66
2021/08/29 07:58:21;;;;;;;14.20;8.30;;;;;;;;;;4972594;28;20030;-66
2021/08/29 08:00:47;;;;;;;10.43;7.75;;;;;;;;;;4971055;28;20038;-73
2021/08/29 08:03:14;;;;;;;11.88;7.68;;;;;;;;;;4960104;28;20027;-72
2021/08/29 08:05:52;;;;;;;10.15;7.72;;;;;;;;;;4979165;28;20052;-76
2021/08/29 08:08:19;;;;;;;7.80;7.00;;;;;;;;;;4974280;28;20030;-60
2021/08/29 08:10:45;;;;;;;8.48;7.15;;;;;;;;;;4971718;28;20093;-66
2021/08/29 08:13:11;;;;;;;11.25;7.90;;;;;;;;;;4966861;28;20358;-67
2021/08/29 08:15:37;;;;;;;19.17;8.60;;;;;;;;;;4965944;28;20085;-66
2021/08/29 08:18:03;;;;;;;9.38;7.10;;;;;;;;;;4964890;28;20027;-68
2021/08/29 08:20:30;;;;;;;12.43;7.22;;;;;;;;;;4972404;28;20051;-67
2021/08/29 08:22:56;;;;;;;8.38;7.45;;;;;;;;;;4966610;28;20051;-61
2021/08/29 08:25:22;;;;;;;8.35;7.55;;;;;;;;;;4973142;28;20027;-68
2021/08/29 08:27:48;;;;;;;10.05;7.47;;;;;;;;;;4973707;28;20424;-67
2021/08/29 08:30:14;;;;;;;8.63;7.78;;;;;;;;;;4972451;28;20027;-67
2021/08/29 08:32:40;;;;;;;8.85;7.80;;;;;;;;;;4973269;28;20078;-65
2021/08/29 08:35:06;;;;;;;12.30;8.45;;;;;;;;;;4968295;28;20039;-61
2021/08/29 08:37:33;;;;;;;10.27;8.32;;;;;;;;;;4973154;28;20019;-61
2021/08/29 08:39:59;;;;;;;9.48;8.27;;;;;;;;;;4973242;28;20044;-67
2021/08/29 08:42:25;;;;;;;13.65;8.32;;;;;;;;;;4966417;28;20039;-63
2021/08/29 08:44:51;;;;;;;12.57;8.82;;;;;;;;;;4973365;28;20105;-64
2021/08/29 08:47:18;;;;;;;9.07;8.18;;;;;;;;;;4972950;28;20031;-68
2021/08/29 08:49:45;;;;;;;11.93;8.02;;;;;;;;;;4973111;28;20034;-65
2021/08/29 08:52:21;;;;;;;14.00;8.20;;;;;;;;;;4972268;28;20500;-61
2021/08/29 08:54:48;;;;;;;11.13;8.82;;;;;;;;;;4973103;28;20037;-65
2021/08/29 08:57:29;;;;;;;9.18;8.13;;;;;;;;;;4979771;28;20019;-66
2021/08/29 08:59:57;;;;;;;11.02;8.50;;;;;;;;;;4949883;28;20018;-66
2021/08/29 09:02:24;;;;;;;10.55;7.90;;;;;;;;;;4971467;28;20027;-67
2021/08/29 09:04:50;;;;;;;9.02;8.13;;;;;;;;;;4972050;28;20022;-66
2021/08/29 09:07:16;;;;;;;9.30;8.40;;;;;;;;;;4972853;28;20023;-68
2021/08/29 09:09:43;;;;;;;8.63;7.60;;;;;;;;;;4971945;28;20031;-67
2021/08/29 09:12:09;;;;;;;10.25;8.10;;;;;;;;;;4972420;28;20042;-65
2021/08/29 09:14:39;;;;;;;11.93;8.18;;;;;;;;;;4971883;28;20038;-65
2021/08/29 09:17:21;;;;;;;13.57;9.32;;;;;;;;;;4957649;28;20094;-68
2021/08/29 09:19:47;;;;;;;9.48;8.50;;;;;;;;;;4972894;28;20035;-65
2021/08/29 09:22:14;;;;;;;10.02;8.75;;;;;;;;;;4972496;28;20047;-68
2021/08/29 09:24:48;;;;;;;13.10;8.95;;;;;;;;;;4973035;28;20524;-68
2021/08/29 09:27:14;;;;;;;10.68;7.80;;;;;;;;;;4972707;28;20033;-66
2021/08/29 09:29:40;;;;;;;8.82;7.93;;;;;;;;;;4972671;28;20027;-65
2021/08/29 09:32:07;;;;;;;8.90;8.00;;;;;;;;;;4972785;28;20079;-64
2021/08/29 09:34:33;;;;;;;12.77;8.38;;;;;;;;;;4972599;28;20038;-65
2021/08/29 09:37:00;;;;;;;8.70;7.80;;;;;;;;;;4972391;28;20038;-60
2021/08/29 09:39:26;;;;;;;9.27;8.38;;;;;;;;;;4959230;28;20027;-68
2021/08/29 09:42:01;;;;;;;8.57;7.72;;;;;;;;;;4967061;28;20058;-67
2021/08/29 09:44:31;;;;;;;9.75;8.23;;;;;;;;;;4969079;28;20098;-67
2021/08/29 09:46:58;;;;;;;10.48;8.40;;;;;;;;;;4976302;28;20880;-66
2021/08/29 09:49:24;;;;;;;9.60;7.93;;;;;;;;;;4976357;28;20074;-66
2021/08/29 09:51:51;;;;;;;9.75;7.60;;;;;;;;;;4976121;28;20035;-67
2021/08/29 09:54:29;;;;;;;12.40;8.38;;;;;;;;;;4975853;28;20062;-68
2021/08/29 09:56:55;;;;;;;10.55;7.90;;;;;;;;;;4971163;28;20053;-62
2021/08/29 09:59:39;;;;;;;10.07;7.32;;;;;;;;;;4975912;28;20081;-65
2021/08/29 10:02:05;;;;;;;12.05;7.78;;;;;;;;;;4975911;28;20026;-65
2021/08/29 10:04:31;;;;;;;8.68;7.78;;;;;;;;;;4975597;28;20030;-67
2021/08/29 10:07:15;;;;;;;9.65;7.85;;;;;;;;;;4975139;28;20023;-64
2021/08/29 10:09:42;;;;;;;8.30;7.40;;;;;;;;;;4974708;28;20038;-65
2021/08/29 10:12:08;;;;;;;9.90;7.30;;;;;;;;;;4973094;28;20034;-64
2021/08/29 10:14:35;;;;;;;12.63;8.00;;;;;;;;;;4974877;28;20027;-61
2021/08/29 10:17:02;;;;;;;11.57;8.18;;;;;;;;;;4969249;28;20751;-63
2021/08/29 10:19:29;;;;;;;11.00;7.50;;;;;;;;;;4975452;28;20373;-67
2021/08/29 10:21:55;;;;;;;9.18;7.57;;;;;;;;;;4956463;28;20492;-65
2021/08/29 10:24:21;;;;;;;15.40;10.07;;;;;;;;;;4975289;28;20027;-64
2021/08/29 10:26:50;;;;;;;19.88;9.60;;;;;;;;;;4971487;28;20110;-70
2021/08/29 10:29:18;;;;;;;26.83;12.10;;;;;;;;;;4967274;28;20041;-67
2021/08/29 10:31:48;;;;;;;25.02;14.20;;;;;;;;;;4974921;28;20169;-68
2021/08/29 10:34:15;;;;;;;17.05;8.52;;;;;;;;;;4974833;28;20126;-68
2021/08/29 10:36:41;;;;;;;16.17;10.45;;;;;;;;;;4977020;28;20038;-69
2021/08/29 10:39:07;;;;;;;9.35;7.90;;;;;;;;;;4962641;28;20043;-75
2021/08/29 10:41:38;;;;;;;9.38;7.60;;;;;;;;;;4977140;28;20090;-75
2021/08/29 10:44:06;;;;;;;10.27;7.15;;;;;;;;;;4966295;28;20030;-71
2021/08/29 10:46:32;;;;;;;7.60;6.80;;;;;;;;;;4956480;28;20519;-75
2021/08/29 10:48:59;;;;;;;9.95;7.00;;;;;;;;;;4970740;28;20101;-69
2021/08/29 10:51:26;;;;;;;9.00;7.30;;;;;;;;;;4973796;28;20074;-69
2021/08/29 10:53:53;;;;;;;10.30;6.47;;;;;;;;;;4973262;28;20023;-69
2021/08/29 10:56:20;;;;;;;8.65;6.40;;;;;;;;;;4973870;28;20515;-69
2021/08/29 10:59:06;;;;;;;12.55;7.85;;;;;;;;;;4954886;28;20474;-71
2021/08/29 11:01:35;;;;;;;9.13;7.22;;;;;;;;;;4971591;28;20054;-67
2021/08/29 11:04:20;;;;;;;8.60;6.60;;;;;;;;;;4974439;28;20038;-71
2021/08/29 11:06:47;;;;;;;8.13;6.30;;;;;;;;;;4968839;28;20452;-70
2021/08/29 11:09:31;;;;;;;7.70;6.93;;;;;;;;;;4971453;28;20059;-70
2021/08/29 11:11:58;;;;;;;9.02;7.07;;;;;;;;;;4973582;28;20441;-68
2021/08/29 11:14:40;;;;;;;12.05;7.55;;;;;;;;;;4963684;28;20031;-67
2021/08/29 11:17:14;;;;;;;8.82;7.45;;;;;;;;;;4968921;28;20031;-69
2021/08/29 11:19:50;;;;;;;9.35;7.82;;;;;;;;;;4974204;28;20500;-69
2021/08/29 11:22:18;;;;;;;9.45;7.60;;;;;;;;;;4973243;28;20512;-73
2021/08/29 11:24:56;;;;;;;8.50;7.65;;;;;;;;;;4974266;28;20380;-71
2021/08/29 11:27:35;;;;;;;10.02;7.07;;;;;;;;;;4973068;28;20133;-66
2021/08/29 11:30:01;;;;;;;9.57;7.30;;;;;;;;;;4973859;28;20034;-69
2021/08/29 11:32:31;;;;;;;9.20;6.55;;;;;;;;;;4971504;28;20029;-69
2021/08/29 11:35:16;;;;;;;;;;;;;;;;;;;;;
2021/08/29 11:37:46;;;;;;;9.18;6.40;;;;;;;;;;4976242;28;20131;-73
2021/08/29 11:40:12;;;;;;;8.18;6.22;;;;;;;;;;4982997;28;20058;-74
2021/08/29 11:42:40;;;;;;;8.05;5.80;;;;;;;;;;4984971;28;20034;-64
2021/08/29 11:45:11;;;;;;;7.38;5.90;;;;;;;;;;4969334;28;20049;-74
2021/08/29 11:47:41;;;;;;;8.07;6.20;;;;;;;;;;4967732;28;20082;-73
2021/08/29 11:50:08;;;;;;;8.95;5.78;;;;;;;;;;4977425;28;20033;-66
2021/08/29 11:52:38;;;;;;;9.82;5.63;;;;;;;;;;4976222;28;20038;-74
2021/08/29 11:55:15;;;;;;;7.00;5.07;;;;;;;;;;4957307;28;20043;-61
2021/08/29 11:57:48;;;;;;;5.68;5.10;;;;;;;;;;4972394;28;20023;-65
2021/08/29 12:00:15;;;;;;;7.35;5.10;;;;;;;;;;4966599;28;20026;-69
2021/08/29 12:02:42;;;;;;;12.90;5.65;;;;;;;;;;4972626;28;20061;-67
2021/08/29 12:05:12;;;;;;;8.35;5.20;;;;;;;;;;4970739;28;20027;-69
2021/08/29 12:08:01;;;;;;;5.88;4.85;;;;;;;;;;4971813;28;20026;-69
2021/08/29 12:10:28;;;;;;;9.05;5.28;;;;;;;;;;4969684;28;20022;-67
2021/08/29 12:12:55;;;;;;;7.57;5.38;;;;;;;;;;4977661;28;20038;-66
2021/08/29 12:15:24;;;;;;;7.07;5.63;;;;;;;;;;4969353;28;20086;-76
2021/08/29 12:17:56;;;;;;;9.75;6.07;;;;;;;;;;4974874;28;20106;-70
2021/08/29 12:20:23;;;;;;;8.93;6.20;;;;;;;;;;4967135;28;20023;-71
2021/08/29 12:22:50;;;;;;;7.18;5.63;;;;;;;;;;4971050;28;20053;-65
2021/08/29 12:25:24;;;;;;;8.40;5.75;;;;;;;;;;4973956;28;20442;-73
2021/08/29 12:28:04;;;;;;;7.85;5.57;;;;;;;;;;4971124;28;20039;-72
2021/08/29 12:30:30;;;;;;;9.95;5.50;;;;;;;;;;4929803;29;20036;-73
2021/08/29 12:33:07;;;;;;;6.78;5.00;;;;;;;;;;4921907;29;20067;-67
2021/08/29 12:35:33;;;;;;;6.90;5.18;;;;;;;;;;4927820;29;20118;-62
2021/08/29 12:38:00;;;;;;;6.72;5.50;;;;;;;;;;4932619;29;20055;-68
2021/08/29 12:40:27;;;;;;;7.72;5.82;;;;;;;;;;4930796;29;20027;-69
2021/08/29 12:42:56;;;;;;;9.23;6.40;;;;;;;;;;4929462;29;20108;-66
2021/08/29 12:45:22;;;;;;;8.07;6.20;;;;;;;;;;4928127;29;20418;-67
2021/08/29 12:47:48;;;;;;;7.57;5.90;;;;;;;;;;4930774;29;20032;-69
2021/08/29 12:50:19;;;;;;;7.50;6.30;;;;;;;;;;4932383;29;20055;-64
2021/08/29 12:52:47;;;;;;;8.82;7.10;;;;;;;;;;4932283;29;20032;-66
2021/08/29 12:55:14;;;;;;;10.10;7.00;;;;;;;;;;4953621;28;20050;-69
2021/08/29 12:57:41;;;;;;;7.90;7.10;;;;;;;;;;4964819;28;20082;-68
2021/08/29 13:00:07;;;;;;;8.45;7.55;;;;;;;;;;4965961;28;20022;-63
2021/08/29 13:02:38;;;;;;;10.00;7.45;;;;;;;;;;4963109;28;20027;-69
2021/08/29 13:05:04;;;;;;;10.95;8.20;;;;;;;;;;4958299;28;20527;-68
2021/08/29 13:07:45;;;;;;;12.15;9.57;;;;;;;;;;4957363;28;20063;-62
2021/08/29 13:10:12;;;;;;;11.15;8.13;;;;;;;;;;4960747;28;20027;-62
2021/08/29 13:12:39;;;;;;;9.23;7.68;;;;;;;;;;4959256;28;20110;-63
2021/08/29 13:15:07;;;;;;;13.85;8.55;;;;;;;;;;4968575;28;20039;-68
2021/08/29 13:17:43;;;;;;;10.68;8.00;;;;;;;;;;4971013;28;20085;-69
2021/08/29 13:20:09;;;;;;;8.65;7.75;;;;;;;;;;4975540;28;20106;-69
2021/08/29 13:22:38;;;;;;;11.68;8.07;;;;;;;;;;4973535;28;20117;-63
2021/08/29 13:25:17;;;;;;;13.45;8.18;;;;;;;;;;4974343;28;20025;-69
2021/08/29 13:27:43;;;;;;;9.98;7.97;;;;;;;;;;4972580;28;20027;-69
2021/08/29 13:30:10;;;;;;;9.60;8.50;;;;;;;;;;4965837;28;20393;-69
2021/08/29 13:32:37;;;;;;;10.48;8.15;;;;;;;;;;4976201;28;20045;-69
2021/08/29 13:35:29;;;;;;;10.95;8.00;;;;;;;;;;4974835;28;20453;-67
2021/08/29 13:37:58;;;;;;;10.02;8.65;;;;;;;;;;4973429;28;20071;-64
2021/08/29 13:40:25;;;;;;;9.65;8.30;;;;;;;;;;4976100;28;20027;-68
2021/08/29 13:43:01;;;;;;;9.52;8.63;;;;;;;;;;4967347;28;20113;-68
2021/08/29 13:45:41;;;;;;;10.23;8.57;;;;;;;;;;4974813;28;20044;-68
2021/08/29 13:48:08;;;;;;;8.90;8.00;;;;;;;;;;4960684;28;20031;-69
2021/08/29 13:50:35;;;;;;;9.02;8.13;;;;;;;;;;4957923;28;20392;-69
2021/08/29 13:53:03;;;;;;;8.73;7.82;;;;;;;;;;4974751;28;20438;-66
2021/08/29 13:55:29;;;;;;;10.88;7.82;;;;;;;;;;4974527;28;20061;-63
2021/08/29 13:57:55;;;;;;;8.30;7.07;;;;;;;;;;4974875;28;20055;-69
2021/08/29 14:00:21;;;;;;;10.48;7.75;;;;;;;;;;4975813;28;20054;-69
2021/08/29 14:02:47;;;;;;;8.20;7.40;;;;;;;;;;4973508;28;20030;-68
2021/08/29 14:05:14;;;;;;;8.38;7.57;;;;;;;;;;4975659;28;20026;-70
2021/08/29 14:07:41;;;;;;;9.38;7.68;;;;;;;;;;4974052;28;20481;-66
2021/08/29 14:10:07;;;;;;;9.25;7.25;;;;;;;;;;4975483;28;20035;-69
2021/08/29 14:12:33;;;;;;;8.32;7.15;;;;;;;;;;4974732;28;20035;-69
2021/08/29 14:14:59;;;;;;;7.78;6.97;;;;;;;;;;4975323;28;20023;-69
2021/08/29 14:17:25;;;;;;;7.72;6.93;;;;;;;;;;4970868;28;20027;-69
2021/08/29 14:19:52;;;;;;;10.55;7.50;;;;;;;;;;4974134;28;20030;-66
2021/08/29 14:22:18;;;;;;;8.25;7.30;;;;;;;;;;4970838;28;20038;-69
2021/08/29 14:24:44;;;;;;;12.70;8.02;;;;;;;;;;4975659;28;20381;-64
2021/08/29 14:27:11;;;;;;;10.02;8.02;;;;;;;;;;4971215;28;20107;-67
2021/08/29 14:29:37;;;;;;;9.13;7.95;;;;;;;;;;4974817;28;20477;-61
2021/08/29 14:32:03;;;;;;;8.90;8.00;;;;;;;;;;4975148;28;20106;-65
2021/08/29 14:34:29;;;;;;;10.13;7.70;;;;;;;;;;4981312;28;20471;-69
2021/08/29 14:36:55;;;;;;;9.00;7.72;;;;;;;;;;4982818;28;20413;-65
2021/08/29 14:39:21;;;;;;;21.52;7.20;;;;;;;;;;4967127;28;20022;-67
2021/08/29 14:41:48;;;;;;;8.23;7.43;;;;;;;;;;4962437;28;20035;-64
2021/08/29 14:44:14;;;;;;;10.90;7.50;;;;;;;;;;4970258;28;20047;-67